createdAt,value
2023-03-06T00:00:38.560Z,-0.28
2023-03-06T00:03:18.764Z,-0.31
2023-03-06T00:05:48.003Z,-0.31
2023-03-06T00:08:16.096Z,-0.33
2023-03-06T00:10:44.593Z,-0.36
2023-03-06T00:13:14.833Z,-0.39
2023-03-06T00:15:43.227Z,-0.43
2023-03-06T00:18:11.675Z,-0.47
2023-03-06T00:20:42.259Z,-0.50
2023-03-06T00:23:11.617Z,-0.55
2023-03-06T00:25:44.087Z,-0.60
2023-03-06T00:28:14.882Z,-0.65
2023-03-06T00:30:44.011Z,-0.71
2023-03-06T00:33:12.263Z,-0.75
2023-03-06T00:35:41.411Z,-0.80
2023-03-06T00:38:12.145Z,-0.83
2023-03-06T00:40:40.363Z,-0.85
2023-03-06T00:43:08.325Z,-0.85
2023-03-06T00:45:36.747Z,-0.86
2023-03-06T00:48:05.496Z,-0.87
2023-03-06T00:50:35.329Z,-0.87
2023-03-06T00:53:03.698Z,-0.88
2023-03-06T00:55:33.696Z,-0.88
2023-03-06T00:58:01.869Z,-0.88
2023-03-06T01:00:29.889Z,-0.89
2023-03-06T01:02:57.867Z,-0.91
2023-03-06T01:05:26.643Z,-0.94
2023-03-06T01:07:54.895Z,-0.98
2023-03-06T01:10:23.168Z,-1.00
2023-03-06T01:12:51.146Z,-1.03
2023-03-06T01:15:20.700Z,-1.04
2023-03-06T01:17:53.543Z,-1.05
2023-03-06T01:20:22.202Z,-1.05
2023-03-06T01:22:50.421Z,-1.08
2023-03-06T01:25:18.489Z,-1.09
2023-03-06T01:27:46.576Z,-1.10
2023-03-06T01:30:15.077Z,-1.10
2023-03-06T01:32:43.306Z,-1.09
2023-03-06T01:35:12.820Z,-1.10
2023-03-06T01:37:41.724Z,-1.10
2023-03-06T01:40:12.577Z,-1.13
2023-03-06T01:42:42.395Z,-1.16
2023-03-06T01:45:13.565Z,-1.21
2023-03-06T01:47:41.577Z,-1.23
2023-03-06T01:50:13.023Z,-1.24
2023-03-06T01:52:48.255Z,-1.28
2023-03-06T01:55:20.668Z,-1.29
2023-03-06T01:57:53.317Z,-1.29
2023-03-06T02:00:27.057Z,-1.33
2023-03-06T02:03:04.131Z,-1.34
2023-03-06T02:05:33.488Z,-1.35
2023-03-06T02:08:04.170Z,-1.36
2023-03-06T02:10:32.523Z,-1.37
2023-03-06T02:13:01.343Z,-1.36
2023-03-06T02:15:29.756Z,-1.34
2023-03-06T02:18:00.071Z,-1.33
2023-03-06T02:20:33.951Z,-1.32
2023-03-06T02:23:04.729Z,-1.34
2023-03-06T02:25:41.086Z,-1.34
2023-03-06T02:28:13.359Z,-1.37
2023-03-06T02:30:43.290Z,-1.32
2023-03-06T02:33:19.023Z,-1.28
2023-03-06T02:35:52.194Z,-1.27
2023-03-06T02:38:25.034Z,-1.28
2023-03-06T02:40:53.686Z,-1.29
2023-03-06T02:43:26.183Z,-1.29
2023-03-06T02:45:54.833Z,-1.30
2023-03-06T02:48:23.049Z,-1.31
2023-03-06T02:50:51.217Z,-1.36
2023-03-06T02:53:20.446Z,-1.39
2023-03-06T02:55:49.672Z,-1.42
2023-03-06T02:58:19.967Z,-1.46
2023-03-06T03:00:50.278Z,-1.48
2023-03-06T03:03:18.561Z,-1.49
2023-03-06T03:05:47.203Z,-1.50
2023-03-06T03:08:24.648Z,-1.51
2023-03-06T03:10:56.438Z,-1.56
2023-03-06T03:13:26.137Z,-1.57
2023-03-06T03:16:14.071Z,-1.59
2023-03-06T03:18:48.133Z,-1.60
2023-03-06T03:21:18.459Z,-1.63
2023-03-06T03:23:48.204Z,-1.67
2023-03-06T03:26:19.425Z,-1.70
2023-03-06T03:28:59.243Z,-1.74
2023-03-06T03:31:27.870Z,-1.84
2023-03-06T03:33:56.416Z,-1.89
2023-03-06T03:36:26.232Z,-1.96
2023-03-06T03:38:55.743Z,-1.98
2023-03-06T03:41:24.224Z,-2.00
2023-03-06T03:43:52.547Z,-2.00
2023-03-06T03:46:21.932Z,-2.07
2023-03-06T03:48:50.815Z,-2.12
2023-03-06T03:51:19.256Z,-2.15
2023-03-06T03:53:49.805Z,-2.22
2023-03-06T03:56:20.577Z,-2.31
2023-03-06T03:58:55.852Z,-2.35
2023-03-06T04:01:25.535Z,-2.36
2023-03-06T04:03:53.919Z,-2.42
2023-03-06T04:06:22.207Z,-2.43
2023-03-06T04:08:50.290Z,-2.50
2023-03-06T04:11:18.340Z,-2.49
2023-03-06T04:13:46.550Z,-2.50
2023-03-06T04:16:15.107Z,-2.53
2023-03-06T04:18:43.224Z,-2.56
2023-03-06T04:21:11.271Z,-2.61
2023-03-06T04:23:39.965Z,-2.72
2023-03-06T04:26:08.145Z,-2.76
2023-03-06T04:28:36.222Z,-2.73
2023-03-06T04:31:04.855Z,-2.76
2023-03-06T04:33:33.154Z,-2.87
2023-03-06T04:36:01.789Z,-2.84
2023-03-06T04:38:31.805Z,-2.83
2023-03-06T04:40:59.938Z,-2.82
2023-03-06T04:43:28.094Z,-2.82
2023-03-06T04:45:58.412Z,-2.82
2023-03-06T04:48:26.429Z,-2.79
2023-03-06T04:50:54.653Z,-2.79
2023-03-06T04:53:22.721Z,-2.83
2023-03-06T04:55:50.831Z,-2.84
2023-03-06T04:58:19.202Z,-2.85
2023-03-06T05:00:47.434Z,-2.86
2023-03-06T05:03:15.634Z,-2.83
2023-03-06T05:05:43.774Z,-2.80
2023-03-06T05:08:16.225Z,-2.77
2023-03-06T05:10:45.805Z,-2.72
2023-03-06T05:13:14.076Z,-2.67
2023-03-06T05:15:42.294Z,-2.60
2023-03-06T05:18:10.445Z,-2.62
2023-03-06T05:20:38.427Z,-2.59
2023-03-06T05:23:06.637Z,-2.58
2023-03-06T05:25:34.773Z,-2.54
2023-03-06T05:28:03.008Z,-2.47
2023-03-06T05:30:31.357Z,-2.44
2023-03-06T05:33:00.877Z,-2.37
2023-03-06T05:35:29.263Z,-2.34
2023-03-06T05:37:57.702Z,-2.31
2023-03-06T05:40:26.492Z,-2.27
2023-03-06T05:42:54.774Z,-2.19
2023-03-06T05:45:22.991Z,-2.11
2023-03-06T05:47:50.999Z,-1.99
2023-03-06T05:50:19.406Z,-1.85
2023-03-06T05:52:47.434Z,-1.75
2023-03-06T05:55:16.589Z,-1.65
2023-03-06T05:57:44.853Z,-1.60
2023-03-06T06:00:14.919Z,-1.56
2023-03-06T06:02:46.164Z,-1.47
2023-03-06T06:05:14.593Z,-1.44
2023-03-06T06:07:42.871Z,-1.35
2023-03-06T06:10:12.106Z,-1.22
2023-03-06T06:12:40.351Z,-1.14
2023-03-06T06:15:09.394Z,-1.04
2023-03-06T06:17:37.769Z,-0.97
2023-03-06T06:20:06.817Z,-0.79
2023-03-06T06:22:37.976Z,-0.68
2023-03-06T06:25:07.085Z,-0.54
2023-03-06T06:27:35.183Z,-0.43
2023-03-06T06:30:04.811Z,-0.26
2023-03-06T06:32:33.230Z,-0.14
2023-03-06T06:35:01.406Z,-0.03
2023-03-06T06:37:30.929Z,0.13
2023-03-06T06:39:59.344Z,0.18
2023-03-06T06:42:35.215Z,0.28
2023-03-06T06:45:05.818Z,0.51
2023-03-06T06:47:34.543Z,0.70
2023-03-06T06:50:02.756Z,0.86
2023-03-06T06:52:30.843Z,0.97
2023-03-06T06:54:59.175Z,1.16
2023-03-06T06:57:27.219Z,1.24
2023-03-06T06:59:55.464Z,1.30
2023-03-06T07:02:23.799Z,1.53
2023-03-06T07:05:03.850Z,1.66
2023-03-06T07:07:38.106Z,1.79
2023-03-06T07:10:14.299Z,1.83
2023-03-06T07:12:43.238Z,1.92
2023-03-06T07:15:12.597Z,1.93
2023-03-06T07:17:40.875Z,2.13
2023-03-06T07:20:10.735Z,2.26
2023-03-06T07:22:50.440Z,2.44
2023-03-06T07:25:20.455Z,2.56
2023-03-06T07:27:53.914Z,2.52
2023-03-06T07:30:23.757Z,2.63
2023-03-06T07:32:54.345Z,2.62
2023-03-06T07:35:23.024Z,2.78
2023-03-06T07:37:51.807Z,2.78
2023-03-06T07:40:20.604Z,2.75
2023-03-06T07:42:49.072Z,2.87
2023-03-06T07:45:20.018Z,2.92
2023-03-06T07:47:50.753Z,2.85
2023-03-06T07:50:20.825Z,2.87
2023-03-06T07:52:50.268Z,2.94
2023-03-06T07:55:18.648Z,2.97
2023-03-06T07:57:49.446Z,3.05
2023-03-06T08:00:18.819Z,3.12
2023-03-06T08:02:47.799Z,3.25
2023-03-06T08:05:16.899Z,3.40
2023-03-06T08:07:45.622Z,3.53
2023-03-06T08:10:15.174Z,3.74
2023-03-06T08:12:43.671Z,3.91
2023-03-06T08:15:12.758Z,4.01
2023-03-06T08:17:41.134Z,4.22
2023-03-06T08:20:10.538Z,4.34
2023-03-06T08:22:39.232Z,4.45
2023-03-06T08:25:08.818Z,4.57
2023-03-06T08:27:37.645Z,4.67
2023-03-06T08:30:08.130Z,4.76
2023-03-06T08:32:37.863Z,4.80
2023-03-06T08:35:07.028Z,4.60
2023-03-06T08:37:35.561Z,4.74
2023-03-06T08:40:04.916Z,4.68
2023-03-06T08:42:33.206Z,4.84
2023-03-06T08:45:01.504Z,5.00
2023-03-06T08:47:30.504Z,4.70
2023-03-06T08:50:00.587Z,4.68
2023-03-06T08:52:29.259Z,4.57
2023-03-06T08:55:03.750Z,4.75
2023-03-06T08:57:32.250Z,4.86
2023-03-06T09:00:00.508Z,4.82
2023-03-06T09:02:29.108Z,4.60
2023-03-06T09:04:59.510Z,4.58
2023-03-06T09:07:28.246Z,4.59
2023-03-06T09:09:59.705Z,4.86
2023-03-06T09:12:29.276Z,5.04
2023-03-06T09:14:58.894Z,5.01
2023-03-06T09:17:27.203Z,4.97
2023-03-06T09:19:55.495Z,5.03
2023-03-06T09:22:23.548Z,4.94
2023-03-06T09:24:52.230Z,4.99
2023-03-06T09:27:20.405Z,5.01
2023-03-06T09:29:48.603Z,4.88
2023-03-06T09:32:16.899Z,4.92
2023-03-06T09:34:45.206Z,4.93
2023-03-06T09:37:14.844Z,4.95
2023-03-06T09:39:43.985Z,4.90
2023-03-06T09:42:18.428Z,4.98
2023-03-06T09:44:59.417Z,5.02
2023-03-06T09:47:39.592Z,5.01
2023-03-06T09:50:17.447Z,5.01
2023-03-06T09:52:52.844Z,4.95
2023-03-06T09:55:28.220Z,4.99
2023-03-06T09:58:07.177Z,4.97
2023-03-06T10:00:54.286Z,5.02
2023-03-06T10:03:30.453Z,5.07
2023-03-06T10:06:19.849Z,5.11
2023-03-06T10:08:58.174Z,5.13
2023-03-06T10:11:44.895Z,5.17
2023-03-06T10:14:34.974Z,5.20
2023-03-06T10:17:05.412Z,5.26
2023-03-06T10:19:40.097Z,5.26
2023-03-06T10:22:14.131Z,5.32
2023-03-06T10:24:48.289Z,5.31
2023-03-06T10:27:28.707Z,5.43
2023-03-06T10:30:18.461Z,5.47
2023-03-06T10:32:56.274Z,5.57
2023-03-06T10:35:32.642Z,5.63
2023-03-06T10:38:21.059Z,5.73
2023-03-06T10:40:54.584Z,5.79
2023-03-06T10:43:23.820Z,5.88
2023-03-06T10:45:53.769Z,5.97
2023-03-06T10:48:28.257Z,6.10
2023-03-06T10:51:22.528Z,6.19
2023-03-06T10:54:02.957Z,6.13
2023-03-06T10:56:38.741Z,6.13
2023-03-06T10:59:25.448Z,6.22
2023-03-06T11:02:13.862Z,6.33
2023-03-06T11:04:47.172Z,6.05
2023-03-06T11:07:15.693Z,6.36
2023-03-06T11:10:05.410Z,6.57
2023-03-06T11:12:39.394Z,6.83
2023-03-06T11:15:10.208Z,7.10
2023-03-06T11:17:50.993Z,7.39
2023-03-06T11:20:21.328Z,7.44
2023-03-06T11:23:16.910Z,7.46
2023-03-06T11:25:50.615Z,7.47
2023-03-06T11:28:27.739Z,7.32
2023-03-06T11:31:20.210Z,7.05
2023-03-06T11:34:05.135Z,6.86
2023-03-06T11:36:39.424Z,6.97
2023-03-06T11:39:19.681Z,6.93
2023-03-06T11:42:04.490Z,6.83
2023-03-06T11:44:43.634Z,6.62
2023-03-06T11:47:17.489Z,6.57
2023-03-06T11:50:06.214Z,6.69
2023-03-06T11:52:54.378Z,6.83
2023-03-06T11:55:48.601Z,6.93
2023-03-06T11:58:25.968Z,7.07
2023-03-06T12:01:06.734Z,7.30
2023-03-06T12:03:52.928Z,7.48
2023-03-06T12:06:39.083Z,7.63
2023-03-06T12:09:13.559Z,7.74
2023-03-06T12:12:00.757Z,7.92
2023-03-06T12:14:51.892Z,7.99
2023-03-06T12:17:26.515Z,7.61
2023-03-06T12:20:42.916Z,7.73
2023-03-06T12:23:40.520Z,7.81
2023-03-06T12:26:30.910Z,7.81
2023-03-06T12:29:11.029Z,7.40
2023-03-06T12:32:06.559Z,7.48
2023-03-06T12:35:07.054Z,7.50
2023-03-06T12:38:14.274Z,7.38
2023-03-06T12:41:05.802Z,7.36
2023-03-06T12:43:38.402Z,7.63
2023-03-06T12:46:22.261Z,7.74
2023-03-06T12:49:11.189Z,7.58
2023-03-06T12:51:41.915Z,7.68
2023-03-06T12:54:11.334Z,7.62
2023-03-06T12:56:40.611Z,7.73
2023-03-06T12:59:28.485Z,7.80
2023-03-06T13:02:18.059Z,8.03
2023-03-06T13:05:09.645Z,8.07
2023-03-06T13:07:56.820Z,8.24
2023-03-06T13:10:36.169Z,8.56
2023-03-06T13:13:23.065Z,8.76
2023-03-06T13:16:11.198Z,8.94
2023-03-06T13:18:42.276Z,8.68
2023-03-06T13:21:42.447Z,8.64
2023-03-06T13:24:24.011Z,8.62
2023-03-06T13:26:57.214Z,8.39
2023-03-06T13:29:37.726Z,8.45
2023-03-06T13:32:13.694Z,8.16
2023-03-06T13:34:47.018Z,8.28
2023-03-06T13:37:23.234Z,8.25
2023-03-06T13:40:00.496Z,8.37
2023-03-06T13:42:36.641Z,8.21
2023-03-06T13:45:17.101Z,8.39
2023-03-06T13:48:15.515Z,8.30
2023-03-06T13:50:40.577Z,8.27
2023-03-06T13:53:19.752Z,8.12
2023-03-06T13:56:27.307Z,7.92
2023-03-06T13:59:04.696Z,7.90
2023-03-06T14:01:44.431Z,7.63
2023-03-06T14:04:26.306Z,7.79
2023-03-06T14:07:11.707Z,7.92
2023-03-06T14:09:45.710Z,7.99
2023-03-06T14:12:36.206Z,7.90
2023-03-06T14:15:17.912Z,7.78
2023-03-06T14:18:02.662Z,7.77
2023-03-06T14:20:39.899Z,7.70
2023-03-06T14:23:32.511Z,7.79
2023-03-06T14:26:23.952Z,7.77
2023-03-06T14:28:52.009Z,7.76
2023-03-06T14:31:23.181Z,7.75
2023-03-06T14:34:03.733Z,7.72
2023-03-06T14:36:44.284Z,7.66
2023-03-06T14:39:16.808Z,7.64
2023-03-06T14:41:44.892Z,7.68
2023-03-06T14:44:19.628Z,7.61
2023-03-06T14:46:56.464Z,7.49
2023-03-06T14:49:26.432Z,7.44
2023-03-06T14:52:00.678Z,7.44
2023-03-06T14:54:30.322Z,7.47
2023-03-06T14:57:04.040Z,7.41
2023-03-06T14:59:41.302Z,7.39
2023-03-06T15:02:16.534Z,7.30
2023-03-06T15:04:49.148Z,7.25
2023-03-06T15:07:25.827Z,7.17
2023-03-06T15:09:55.354Z,7.13
2023-03-06T15:12:23.472Z,7.08
2023-03-06T15:15:26.164Z,6.96
2023-03-06T15:17:54.555Z,6.90
2023-03-06T15:20:53.649Z,6.89
2023-03-06T15:23:34.243Z,6.73
2023-03-06T15:26:33.680Z,6.71
2023-03-06T15:29:11.034Z,6.61
2023-03-06T15:31:42.199Z,6.60
2023-03-06T15:34:10.338Z,6.53
2023-03-06T15:36:41.586Z,6.46
2023-03-06T15:39:40.215Z,6.38
2023-03-06T15:42:23.608Z,6.37
2023-03-06T15:44:57.913Z,6.27
2023-03-06T15:47:26.334Z,6.20
2023-03-06T15:49:55.122Z,6.08
2023-03-06T15:52:23.712Z,5.97
2023-03-06T15:54:51.758Z,5.91
2023-03-06T15:57:24.071Z,5.94
2023-03-06T15:59:52.650Z,5.91
2023-03-06T16:02:22.326Z,5.88
2023-03-06T16:04:51.378Z,5.85
2023-03-06T16:07:20.796Z,5.84
2023-03-06T16:09:49.176Z,5.79
2023-03-06T16:12:21.831Z,5.72
2023-03-06T16:14:50.050Z,5.69
2023-03-06T16:17:18.184Z,5.67
2023-03-06T16:19:46.354Z,5.57
2023-03-06T16:22:14.710Z,5.57
2023-03-06T16:24:43.529Z,5.55
2023-03-06T16:27:18.995Z,5.56
2023-03-06T16:29:47.125Z,5.53
2023-03-06T16:32:15.356Z,5.51
2023-03-06T16:34:43.504Z,5.46
2023-03-06T16:37:13.388Z,5.42
2023-03-06T16:39:41.450Z,5.32
2023-03-06T16:42:10.090Z,5.19
2023-03-06T16:44:38.622Z,5.05
2023-03-06T16:47:11.995Z,4.98
2023-03-06T16:49:40.163Z,4.93
2023-03-06T16:52:11.000Z,4.90
2023-03-06T16:54:39.157Z,4.89
2023-03-06T16:57:07.183Z,4.87
2023-03-06T16:59:35.309Z,4.86
2023-03-06T17:02:03.868Z,4.84
2023-03-06T17:04:31.933Z,4.78
2023-03-06T17:07:00.036Z,4.71
2023-03-06T17:09:28.328Z,4.65
2023-03-06T17:11:56.457Z,4.58
2023-03-06T17:14:24.491Z,4.55
2023-03-06T17:16:53.790Z,4.45
2023-03-06T17:19:22.105Z,4.39
2023-03-06T17:21:50.188Z,4.36
2023-03-06T17:24:18.291Z,4.26
2023-03-06T17:26:47.015Z,4.27
2023-03-06T17:29:15.516Z,4.30
2023-03-06T17:31:43.787Z,4.30
2023-03-06T17:34:12.174Z,4.31
2023-03-06T17:36:40.442Z,4.31
2023-03-06T17:39:08.473Z,4.33
2023-03-06T17:41:36.476Z,4.35
2023-03-06T17:44:04.978Z,4.36
2023-03-06T17:46:34.652Z,4.37
2023-03-06T17:49:02.916Z,4.38
2023-03-06T17:51:30.942Z,4.37
2023-03-06T17:53:59.162Z,4.29
2023-03-06T17:56:27.792Z,4.30
2023-03-06T17:58:57.031Z,4.30
2023-03-06T18:01:30.358Z,4.35
2023-03-06T18:03:58.699Z,4.32
2023-03-06T18:06:30.197Z,4.34
2023-03-06T18:08:58.862Z,4.34
2023-03-06T18:11:27.834Z,4.31
2023-03-06T18:13:56.295Z,4.21
2023-03-06T18:16:26.132Z,4.15
2023-03-06T18:18:56.753Z,4.08
2023-03-06T18:21:25.692Z,4.03
2023-03-06T18:23:53.954Z,3.98
2023-03-06T18:26:27.891Z,3.91
2023-03-06T18:29:03.719Z,3.83
2023-03-06T18:31:35.075Z,3.77
2023-03-06T18:34:06.774Z,3.77
2023-03-06T18:36:35.949Z,3.75
2023-03-06T18:39:08.735Z,3.76
2023-03-06T18:41:37.692Z,3.68
2023-03-06T18:44:06.097Z,3.63
2023-03-06T18:46:36.936Z,3.59
2023-03-06T18:49:06.361Z,3.57
2023-03-06T18:51:34.907Z,3.52
2023-03-06T18:54:05.009Z,3.53
2023-03-06T18:56:34.155Z,3.44
2023-03-06T18:59:05.101Z,3.43
2023-03-06T19:01:33.839Z,3.37
2023-03-06T19:04:03.949Z,3.34
2023-03-06T19:06:32.608Z,3.37
2023-03-06T19:09:02.296Z,3.34
2023-03-06T19:11:32.263Z,3.37
2023-03-06T19:14:00.806Z,3.40
2023-03-06T19:16:30.616Z,3.37
2023-03-06T19:18:59.289Z,3.38
2023-03-06T19:21:28.644Z,3.32
2023-03-06T19:23:57.422Z,3.34
2023-03-06T19:26:27.153Z,3.38
2023-03-06T19:28:55.476Z,3.39
2023-03-06T19:31:26.596Z,3.40
2023-03-06T19:33:56.946Z,3.36
2023-03-06T19:36:28.697Z,3.38
2023-03-06T19:38:58.798Z,3.42
2023-03-06T19:41:27.508Z,3.47
2023-03-06T19:43:57.221Z,3.47
2023-03-06T19:46:26.924Z,3.49
2023-03-06T19:48:57.185Z,3.47
2023-03-06T19:51:26.369Z,3.48
2023-03-06T19:53:56.014Z,3.42
2023-03-06T19:56:26.840Z,3.48
2023-03-06T19:58:55.402Z,3.50
2023-03-06T20:01:25.124Z,3.48
2023-03-06T20:03:59.467Z,3.46
2023-03-06T20:06:31.205Z,3.42
2023-03-06T20:09:01.420Z,3.39
2023-03-06T20:11:30.253Z,3.41
2023-03-06T20:13:59.711Z,3.38
2023-03-06T20:16:29.227Z,3.32
2023-03-06T20:19:00.153Z,3.25
2023-03-06T20:21:30.699Z,3.27
2023-03-06T20:23:59.493Z,3.26
2023-03-06T20:26:28.657Z,3.21
2023-03-06T20:28:57.391Z,3.21
2023-03-06T20:31:28.582Z,3.18
2023-03-06T20:33:59.290Z,3.18
2023-03-06T20:36:36.378Z,3.20
2023-03-06T20:39:07.547Z,3.20
2023-03-06T20:41:35.999Z,3.20
2023-03-06T20:44:06.990Z,3.22
2023-03-06T20:46:36.236Z,3.21
2023-03-06T20:49:05.059Z,3.21
2023-03-06T20:51:36.217Z,3.22
2023-03-06T20:54:05.486Z,3.23
2023-03-06T20:56:35.620Z,3.24
2023-03-06T20:59:04.021Z,3.32
2023-03-06T21:01:38.521Z,3.36
2023-03-06T21:04:11.311Z,3.37
2023-03-06T21:06:40.409Z,3.38
2023-03-06T21:09:08.589Z,3.37
2023-03-06T21:11:36.768Z,3.35
2023-03-06T21:14:05.476Z,3.32
2023-03-06T21:16:34.022Z,3.33
2023-03-06T21:19:02.636Z,3.34
2023-03-06T21:21:32.998Z,3.37
2023-03-06T21:24:02.500Z,3.36
2023-03-06T21:26:33.965Z,3.36
2023-03-06T21:29:03.160Z,3.36
2023-03-06T21:31:33.570Z,3.39
2023-03-06T21:34:04.611Z,3.42
2023-03-06T21:36:34.083Z,3.41
2023-03-06T21:39:03.946Z,3.35
2023-03-06T21:41:32.931Z,3.39
2023-03-06T21:44:04.137Z,3.39
2023-03-06T21:46:32.821Z,3.39
2023-03-06T21:49:03.958Z,3.37
2023-03-06T21:51:32.501Z,3.35
2023-03-06T21:54:02.224Z,3.36
2023-03-06T21:56:30.425Z,3.35
2023-03-06T21:58:58.880Z,3.24
2023-03-06T22:01:29.050Z,3.22
2023-03-06T22:03:58.390Z,3.24
2023-03-06T22:06:28.472Z,3.31
2023-03-06T22:08:58.999Z,3.35
2023-03-06T22:11:31.581Z,3.38
2023-03-06T22:14:00.056Z,3.35
2023-03-06T22:16:28.686Z,3.42
2023-03-06T22:18:57.737Z,3.47
2023-03-06T22:21:25.707Z,3.45
2023-03-06T22:23:59.745Z,3.46
2023-03-06T22:26:29.303Z,3.51
2023-03-06T22:28:57.502Z,3.54
2023-03-06T22:31:28.594Z,3.56
2023-03-06T22:33:59.819Z,3.59
2023-03-06T22:36:32.731Z,3.59
2023-03-06T22:39:02.549Z,3.62
2023-03-06T22:41:31.410Z,3.65
2023-03-06T22:44:02.350Z,3.71
2023-03-06T22:46:31.896Z,3.74
2023-03-06T22:49:00.767Z,3.74
2023-03-06T22:51:29.660Z,3.75
2023-03-06T22:53:58.326Z,3.72
2023-03-06T22:56:26.498Z,3.73
2023-03-06T22:58:54.556Z,3.69
2023-03-06T23:01:27.764Z,3.71
2023-03-06T23:04:00.919Z,3.72
2023-03-06T23:06:36.537Z,3.72
2023-03-06T23:09:17.332Z,3.76
2023-03-06T23:12:04.645Z,3.79
2023-03-06T23:14:51.939Z,3.75
2023-03-06T23:17:38.656Z,3.79
2023-03-06T23:20:25.121Z,3.74
2023-03-06T23:23:11.900Z,3.80
2023-03-06T23:25:43.910Z,3.82
2023-03-06T23:28:12.432Z,3.79
2023-03-06T23:30:41.981Z,3.82
2023-03-06T23:33:10.611Z,3.73
2023-03-06T23:35:39.307Z,3.72
2023-03-06T23:38:07.845Z,3.73
2023-03-06T23:40:37.833Z,3.74
2023-03-06T23:43:06.288Z,3.74
2023-03-06T23:45:34.464Z,3.73
2023-03-06T23:48:02.616Z,3.74
2023-03-06T23:50:31.942Z,3.77
2023-03-06T23:53:00.019Z,3.70
2023-03-06T23:55:28.164Z,3.67
2023-03-06T23:57:56.235Z,3.75
